createdAt,value
2023-04-29T00:02:39.551Z,14.1
2023-04-29T00:08:33.602Z,14.1
2023-04-29T00:14:27.269Z,13.9
2023-04-29T00:20:19.712Z,14
2023-04-29T00:26:11.989Z,14
2023-04-29T00:32:04.344Z,13.9
2023-04-29T00:37:57.133Z,13.9
2023-04-29T00:43:49.569Z,13.7
2023-04-29T00:49:41.896Z,13.6
2023-04-29T00:55:33.542Z,13.6
2023-04-29T01:01:25.866Z,13.7
2023-04-29T01:07:18.507Z,13.5
2023-04-29T01:13:10.497Z,13.3
2023-04-29T01:19:03.037Z,13.3
2023-04-29T01:24:55.582Z,13.4
2023-04-29T01:30:49.311Z,13.3
2023-04-29T01:36:40.880Z,13.1
2023-04-29T01:42:33.238Z,13.1
2023-04-29T01:48:26.157Z,13
2023-04-29T01:54:16.909Z,13
2023-04-29T02:00:10.057Z,13
2023-04-29T02:06:02.682Z,13
2023-04-29T02:11:55.120Z,12.9
2023-04-29T02:17:46.877Z,12.9
2023-04-29T02:23:38.727Z,12.7
2023-04-29T02:29:31.445Z,12.8
2023-04-29T02:35:24.188Z,12.6
2023-04-29T02:41:16.202Z,12.3
2023-04-29T02:47:09.600Z,12.3
2023-04-29T02:53:02.369Z,12.3
2023-04-29T02:58:53.090Z,12.2
2023-04-29T03:04:44.713Z,12.1
2023-04-29T03:10:38.218Z,12.4
2023-04-29T03:16:31.945Z,12.3
2023-04-29T03:22:24.884Z,12.3
2023-04-29T03:28:18.091Z,12.2
2023-04-29T03:34:10.295Z,12.2
2023-04-29T03:40:02.546Z,12.2
2023-04-29T03:45:54.034Z,12.1
2023-04-29T03:51:46.422Z,12.1
2023-04-29T03:57:41.685Z,12.1
2023-04-29T04:03:34.634Z,12.2
2023-04-29T04:09:27.308Z,12.1
2023-04-29T04:15:20.155Z,12.1
2023-04-29T04:21:12.432Z,12
2023-04-29T04:27:05.467Z,12.2
2023-04-29T04:32:57.899Z,12.1
2023-04-29T04:38:50.304Z,12
2023-04-29T04:44:42.521Z,11.8
2023-04-29T04:50:34.769Z,11.7
2023-04-29T04:56:27.024Z,11.4
2023-04-29T05:02:19.219Z,11.4
2023-04-29T05:08:23.022Z,11.4
2023-04-29T05:14:20.920Z,11.4
2023-04-29T05:20:19.060Z,11.4
2023-04-29T05:26:20.569Z,11.4
2023-04-29T05:32:13.436Z,11.2
2023-04-29T05:38:12.077Z,11.4
2023-04-29T05:44:08.620Z,11.3
2023-04-29T05:50:01.553Z,11.1
2023-04-29T05:55:56.651Z,11
2023-04-29T06:01:48.872Z,11.2
2023-04-29T06:07:46.886Z,11.1
2023-04-29T06:13:41.302Z,10.8
2023-04-29T06:19:39.520Z,10.8
2023-04-29T06:25:32.388Z,10.7
2023-04-29T06:31:26.797Z,10.8
2023-04-29T06:37:22.848Z,10.6
2023-04-29T06:43:22.114Z,10.7
2023-04-29T06:49:13.968Z,10.6
2023-04-29T06:55:06.158Z,10.8
2023-04-29T07:01:02.528Z,10.8
2023-04-29T07:06:56.089Z,11.1
2023-04-29T07:12:50.638Z,10.9
2023-04-29T07:18:47.835Z,11.1
2023-04-29T07:24:39.266Z,11
2023-04-29T07:30:32.765Z,11.1
2023-04-29T07:36:29.222Z,11
2023-04-29T07:42:23.473Z,11.2
2023-04-29T07:48:17.674Z,11.2
2023-04-29T08:00:15.611Z,11.3
2023-04-29T08:06:11.947Z,11.3
2023-04-29T08:12:07.390Z,11.5
2023-04-29T08:18:01.134Z,11.5
2023-04-29T08:24:04.429Z,11.5
2023-04-29T08:30:14.388Z,11.3
2023-04-29T08:36:27.476Z,11.5
2023-04-29T08:42:20.362Z,11.5
2023-04-29T08:48:14.169Z,11.5
2023-04-29T08:54:13.661Z,11.5
2023-04-29T09:00:15.861Z,11.6
2023-04-29T09:06:22.335Z,11.8
2023-04-29T09:12:17.669Z,11.8
2023-04-29T09:31:18.446Z,11.7
2023-04-29T09:37:14.269Z,11.8
2023-04-29T10:28:31.569Z,12.3
2023-04-29T10:47:16.508Z,12.5
2023-04-29T10:59:39.967Z,12.5
2023-04-29T11:23:36.214Z,12.2
2023-04-29T11:29:40.668Z,12.2
2023-04-29T11:35:37.460Z,12.2
2023-04-29T11:41:29.437Z,11.9
2023-04-29T11:47:25.697Z,11.9
2023-04-29T11:53:18.846Z,11.8
2023-04-29T11:59:10.398Z,11.9
2023-04-29T12:05:02.337Z,12.1
2023-04-29T12:10:56.103Z,11.9
2023-04-29T12:16:47.490Z,11.8
2023-04-29T12:22:39.479Z,11.9
2023-04-29T12:28:31.303Z,11.7
2023-04-29T12:34:25.881Z,12
2023-04-29T12:40:17.667Z,11.8
2023-04-29T12:46:09.888Z,11.9
2023-04-29T12:52:01.978Z,11.8
2023-04-29T12:58:00.371Z,11.9
2023-04-29T13:03:54.883Z,11.8
2023-04-29T13:15:57.478Z,11.8
2023-04-29T13:21:50.807Z,11.9
2023-04-29T13:27:44.913Z,11.7
2023-04-29T13:33:46.757Z,11.9
2023-04-29T13:39:57.357Z,12
2023-04-29T13:45:57.856Z,12.1
2023-04-29T14:00:19.999Z,11.9
2023-04-29T14:07:23.353Z,12
2023-04-29T14:13:15.531Z,12.1
2023-04-29T14:19:08.821Z,12.4
2023-04-29T14:25:01.030Z,12.4
2023-04-29T14:30:54.446Z,12.4
2023-04-29T14:36:47.494Z,12.6
2023-04-29T14:42:48.553Z,13
2023-04-29T14:48:40.073Z,12.8
2023-04-29T14:54:33.228Z,12.9
2023-04-29T15:00:25.349Z,13
2023-04-29T15:06:18.924Z,13.5
2023-04-29T15:12:10.234Z,13.3
2023-04-29T15:18:02.702Z,13.5
2023-04-29T15:23:52.654Z,13.7
2023-04-29T15:29:44.547Z,13.7
2023-04-29T15:35:36.085Z,13.8
2023-04-29T15:41:26.669Z,13.8
2023-04-29T15:47:18.884Z,13.7
2023-04-29T15:53:09.705Z,13.4
2023-04-29T15:59:01.990Z,13.5
2023-04-29T16:04:54.538Z,13.5
2023-04-29T16:10:46.911Z,13.3
2023-04-29T16:18:18.441Z,13.4
2023-04-29T16:24:08.881Z,13.4
2023-04-29T16:30:01.175Z,13.5
2023-04-29T16:35:55.045Z,13.5
2023-04-29T16:41:48.928Z,13.4
2023-04-29T16:48:50.163Z,13.3
2023-04-29T16:54:43.101Z,13.4
2023-04-29T17:00:33.675Z,13.5
2023-04-29T17:06:25.164Z,13.3
2023-04-29T17:12:17.356Z,13.3
2023-04-29T17:18:10.075Z,13.4
2023-04-29T17:24:00.897Z,13.5
2023-04-29T17:29:53.473Z,13.4
2023-04-29T17:35:45.972Z,13.4
2023-04-29T17:41:37.508Z,13.3
2023-04-29T17:47:29.364Z,13.4
2023-04-29T17:53:32.912Z,13.5
2023-04-29T17:59:26.244Z,13.4
2023-04-29T18:05:22.400Z,13.5
2023-04-29T18:11:25.004Z,13.4
2023-04-29T18:17:17.835Z,13.3
2023-04-29T18:23:09.679Z,13.3
2023-04-29T18:29:02.324Z,13.3
2023-04-29T18:34:53.266Z,13.3
2023-04-29T18:40:45.435Z,13.4
2023-04-29T18:53:02.062Z,13.2
2023-04-29T18:58:54.182Z,13.1
2023-04-29T19:04:46.899Z,13
2023-04-29T19:10:43.658Z,12.9
2023-04-29T19:16:50.164Z,13
2023-04-29T19:22:51.701Z,12.8
2023-04-29T19:28:44.484Z,12.8
2023-04-29T19:34:38.244Z,12.6
2023-04-29T19:40:37.603Z,12.5
2023-04-29T19:46:31.742Z,12.5
2023-04-29T19:52:31.352Z,12.5
2023-04-29T19:58:23.998Z,12.3
2023-04-29T20:04:18.156Z,12.3
2023-04-29T20:10:10.292Z,12.3
2023-04-29T20:16:02.716Z,12.3
2023-04-29T20:21:56.730Z,12.3
2023-04-29T20:27:52.463Z,11.9
2023-04-29T20:40:20.233Z,12.2
2023-04-29T20:46:14.357Z,12
2023-04-29T20:52:23.218Z,11.9
2023-04-29T20:58:15.799Z,11.7
2023-04-29T21:04:07.215Z,11.6
2023-04-29T21:09:59.768Z,11.4
2023-04-29T21:15:51.864Z,11.5
2023-04-29T21:21:45.053Z,11.5
2023-04-29T21:27:37.896Z,11.3
2023-04-29T21:33:30.414Z,11.3
2023-04-29T21:39:24.013Z,11.3
2023-04-29T21:45:16.728Z,11.1
2023-04-29T21:51:09.477Z,11.3
2023-04-29T21:56:59.625Z,11.3
2023-04-29T22:02:52.053Z,11.3
2023-04-29T22:08:45.285Z,11
2023-04-29T22:14:37.447Z,11
2023-04-29T22:20:30.246Z,11.1
2023-04-29T22:26:22.507Z,10.9
2023-04-29T22:32:15.415Z,11
2023-04-29T22:38:07.892Z,11
2023-04-29T22:44:00.280Z,11.1
2023-04-29T22:49:52.486Z,11
2023-04-29T22:55:47.229Z,11.1
2023-04-29T23:01:40.167Z,10.9
2023-04-29T23:07:33.691Z,11.1
2023-04-29T23:13:27.959Z,11
2023-04-29T23:19:20.009Z,11.1
2023-04-29T23:25:12.381Z,11.1
2023-04-29T23:31:04.013Z,11
2023-04-29T23:36:56.550Z,11.1
2023-04-29T23:42:48.710Z,11.1
2023-04-29T23:48:40.453Z,11
2023-04-29T23:54:33.172Z,11.1
